sensor_id;sensor_type;location;lat;lon;timestamp;pressure;altitude;pressure_sealevel;temperature;humidity
57250;BME280;43102;52.014;-0.680;2023-12-04T00:00:00;99371;;;8.02;89.14
57250;BME280;43102;52.014;-0.680;2023-12-04T00:01:00;99362;;;8.01;89.13
57250;BME280;43102;52.014;-0.680;2023-12-04T00:02:00;99362;;;8.01;89.13
57250;BME280;43102;52.014;-0.680;2023-12-04T00:03:00;99362;;;8.01;89.13
57250;BME280;43102;52.014;-0.680;2023-12-04T00:04:01;99362;;;8.01;89.13
57250;BME280;43102;52.014;-0.680;2023-12-04T00:05:00;99362;;;8.01;89.13
57250;BME280;43102;52.014;-0.680;2023-12-04T00:06:00;99351;;;8.01;89.16
57250;BME280;43102;52.014;-0.680;2023-12-04T00:07:00;99351;;;8.01;89.16
57250;BME280;43102;52.014;-0.680;2023-12-04T00:08:00;99351;;;8.01;89.16
57250;BME280;43102;52.014;-0.680;2023-12-04T00:09:00;99351;;;8.01;89.16
57250;BME280;43102;52.014;-0.680;2023-12-04T00:10:00;99351;;;8.01;89.16
57250;BME280;43102;52.014;-0.680;2023-12-04T00:11:00;99346;;;8.04;89.03
57250;BME280;43102;52.014;-0.680;2023-12-04T00:12:00;99346;;;8.04;89.03
57250;BME280;43102;52.014;-0.680;2023-12-04T00:13:00;99346;;;8.04;89.03
57250;BME280;43102;52.014;-0.680;2023-12-04T00:14:00;99346;;;8.04;89.03
57250;BME280;43102;52.014;-0.680;2023-12-04T00:15:00;99346;;;8.04;89.03
57250;BME280;43102;52.014;-0.680;2023-12-04T00:16:00;99332;;;8.02;89.17
57250;BME280;43102;52.014;-0.680;2023-12-04T00:17:00;99332;;;8.02;89.17
57250;BME280;43102;52.014;-0.680;2023-12-04T00:18:00;99332;;;8.02;89.17
57250;BME280;43102;52.014;-0.680;2023-12-04T00:19:00;99332;;;8.02;89.17
57250;BME280;43102;52.014;-0.680;2023-12-04T00:20:00;99332;;;8.02;89.17
57250;BME280;43102;52.014;-0.680;2023-12-04T00:21:00;99324;;;8.04;89.04
57250;BME280;43102;52.014;-0.680;2023-12-04T00:22:00;99324;;;8.04;89.04
57250;BME280;43102;52.014;-0.680;2023-12-04T00:23:00;99324;;;8.04;89.04
57250;BME280;43102;52.014;-0.680;2023-12-04T00:24:00;99324;;;8.04;89.04
57250;BME280;43102;52.014;-0.680;2023-12-04T00:25:00;99324;;;8.04;89.04
57250;BME280;43102;52.014;-0.680;2023-12-04T00:26:00;99315;;;8.04;89.01
57250;BME280;43102;52.014;-0.680;2023-12-04T00:27:00;99315;;;8.04;89.01
57250;BME280;43102;52.014;-0.680;2023-12-04T00:28:00;99315;;;8.04;89.01
57250;BME280;43102;52.014;-0.680;2023-12-04T00:29:00;99315;;;8.04;89.01
57250;BME280;43102;52.014;-0.680;2023-12-04T00:30:00;99315;;;8.04;89.01
57250;BME280;43102;52.014;-0.680;2023-12-04T00:31:00;99300;;;8.04;89.16
57250;BME280;43102;52.014;-0.680;2023-12-04T00:32:00;99300;;;8.04;89.16
57250;BME280;43102;52.014;-0.680;2023-12-04T00:33:00;99300;;;8.04;89.16
57250;BME280;43102;52.014;-0.680;2023-12-04T00:34:00;99300;;;8.04;89.16
57250;BME280;43102;52.014;-0.680;2023-12-04T00:35:00;99300;;;8.04;89.16
57250;BME280;43102;52.014;-0.680;2023-12-04T00:36:00;99293;;;8.05;89.18
57250;BME280;43102;52.014;-0.680;2023-12-04T00:37:00;99293;;;8.05;89.18
57250;BME280;43102;52.014;-0.680;2023-12-04T00:38:00;99293;;;8.05;89.18
57250;BME280;43102;52.014;-0.680;2023-12-04T00:39:00;99293;;;8.05;89.18
57250;BME280;43102;52.014;-0.680;2023-12-04T00:40:00;99293;;;8.05;89.18
57250;BME280;43102;52.014;-0.680;2023-12-04T00:41:00;99286;;;8.06;89.08
57250;BME280;43102;52.014;-0.680;2023-12-04T00:42:00;99286;;;8.06;89.08
57250;BME280;43102;52.014;-0.680;2023-12-04T00:43:00;99286;;;8.06;89.08
57250;BME280;43102;52.014;-0.680;2023-12-04T00:44:00;99286;;;8.06;89.08
57250;BME280;43102;52.014;-0.680;2023-12-04T00:45:01;99286;;;8.06;89.08
57250;BME280;43102;52.014;-0.680;2023-12-04T00:46:00;99275;;;8.06;89.04
57250;BME280;43102;52.014;-0.680;2023-12-04T00:47:00;99275;;;8.06;89.04
57250;BME280;43102;52.014;-0.680;2023-12-04T00:48:00;99275;;;8.06;89.04
57250;BME280;43102;52.014;-0.680;2023-12-04T00:49:00;99275;;;8.06;89.04
57250;BME280;43102;52.014;-0.680;2023-12-04T00:50:00;99275;;;8.06;89.04
57250;BME280;43102;52.014;-0.680;2023-12-04T00:51:00;99264;;;8.06;89.07
57250;BME280;43102;52.014;-0.680;2023-12-04T00:52:00;99264;;;8.06;89.07
57250;BME280;43102;52.014;-0.680;2023-12-04T00:53:00;99264;;;8.06;89.07
57250;BME280;43102;52.014;-0.680;2023-12-04T00:54:00;99264;;;8.06;89.07
57250;BME280;43102;52.014;-0.680;2023-12-04T00:55:00;99264;;;8.06;89.07
57250;BME280;43102;52.014;-0.680;2023-12-04T00:56:00;99247;;;8.07;89.02
57250;BME280;43102;52.014;-0.680;2023-12-04T00:57:00;99247;;;8.07;89.02
57250;BME280;43102;52.014;-0.680;2023-12-04T00:58:00;99247;;;8.07;89.02
57250;BME280;43102;52.014;-0.680;2023-12-04T00:59:00;99247;;;8.07;89.02
57250;BME280;43102;52.014;-0.680;2023-12-04T01:00:00;99247;;;8.07;89.02
57250;BME280;43102;52.014;-0.680;2023-12-04T01:01:00;99241;;;8.07;88.79
57250;BME280;43102;52.014;-0.680;2023-12-04T01:02:00;99241;;;8.07;88.79
57250;BME280;43102;52.014;-0.680;2023-12-04T01:03:00;99241;;;8.07;88.79
57250;BME280;43102;52.014;-0.680;2023-12-04T01:04:00;99241;;;8.07;88.79
57250;BME280;43102;52.014;-0.680;2023-12-04T01:05:00;99241;;;8.07;88.79
57250;BME280;43102;52.014;-0.680;2023-12-04T01:06:00;99226;;;8.06;88.65
57250;BME280;43102;52.014;-0.680;2023-12-04T01:07:00;99226;;;8.06;88.65
57250;BME280;43102;52.014;-0.680;2023-12-04T01:08:00;99226;;;8.06;88.65
57250;BME280;43102;52.014;-0.680;2023-12-04T01:09:00;99226;;;8.06;88.65
57250;BME280;43102;52.014;-0.680;2023-12-04T01:10:00;99226;;;8.06;88.65
57250;BME280;43102;52.014;-0.680;2023-12-04T01:11:00;99216;;;8.03;88.58
57250;BME280;43102;52.014;-0.680;2023-12-04T01:12:00;99216;;;8.03;88.58
57250;BME280;43102;52.014;-0.680;2023-12-04T01:13:00;99216;;;8.03;88.58
57250;BME280;43102;52.014;-0.680;2023-12-04T01:14:00;99216;;;8.03;88.58
57250;BME280;43102;52.014;-0.680;2023-12-04T01:15:01;99216;;;8.03;88.58
57250;BME280;43102;52.014;-0.680;2023-12-04T01:16:00;99209;;;7.98;88.52
57250;BME280;43102;52.014;-0.680;2023-12-04T01:17:00;99209;;;7.98;88.52
57250;BME280;43102;52.014;-0.680;2023-12-04T01:18:00;99209;;;7.98;88.52
57250;BME280;43102;52.014;-0.680;2023-12-04T01:19:00;99209;;;7.98;88.52
57250;BME280;43102;52.014;-0.680;2023-12-04T01:20:00;99209;;;7.98;88.52
57250;BME280;43102;52.014;-0.680;2023-12-04T01:21:00;99198;;;7.96;88.39
57250;BME280;43102;52.014;-0.680;2023-12-04T01:22:00;99198;;;7.96;88.39
57250;BME280;43102;52.014;-0.680;2023-12-04T01:23:00;99198;;;7.96;88.39
57250;BME280;43102;52.014;-0.680;2023-12-04T01:24:00;99198;;;7.96;88.39
57250;BME280;43102;52.014;-0.680;2023-12-04T01:25:00;99198;;;7.96;88.39
57250;BME280;43102;52.014;-0.680;2023-12-04T01:26:01;99185;;;7.94;88.19
57250;BME280;43102;52.014;-0.680;2023-12-04T01:27:00;99185;;;7.94;88.19
57250;BME280;43102;52.014;-0.680;2023-12-04T01:28:00;99185;;;7.94;88.19
57250;BME280;43102;52.014;-0.680;2023-12-04T01:29:00;99185;;;7.94;88.19
57250;BME280;43102;52.014;-0.680;2023-12-04T01:30:00;99185;;;7.94;88.19
57250;BME280;43102;52.014;-0.680;2023-12-04T01:31:00;99177;;;7.92;88.01
57250;BME280;43102;52.014;-0.680;2023-12-04T01:32:00;99177;;;7.92;88.01
57250;BME280;43102;52.014;-0.680;2023-12-04T01:33:00;99177;;;7.92;88.01
57250;BME280;43102;52.014;-0.680;2023-12-04T01:34:00;99177;;;7.92;88.01
57250;BME280;43102;52.014;-0.680;2023-12-04T01:35:01;99177;;;7.92;88.01
57250;BME280;43102;52.014;-0.680;2023-12-04T01:36:01;99172;;;7.93;87.97
57250;BME280;43102;52.014;-0.680;2023-12-04T01:37:00;99172;;;7.93;87.97
57250;BME280;43102;52.014;-0.680;2023-12-04T01:38:00;99172;;;7.93;87.97
57250;BME280;43102;52.014;-0.680;2023-12-04T01:39:00;99172;;;7.93;87.97
57250;BME280;43102;52.014;-0.680;2023-12-04T01:40:00;99172;;;7.93;87.97
57250;BME280;43102;52.014;-0.680;2023-12-04T01:41:00;99160;;;7.85;87.80
57250;BME280;43102;52.014;-0.680;2023-12-04T01:42:00;99160;;;7.85;87.80
57250;BME280;43102;52.014;-0.680;2023-12-04T01:43:00;99160;;;7.85;87.80
57250;BME280;43102;52.014;-0.680;2023-12-04T01:44:00;99160;;;7.85;87.80
57250;BME280;43102;52.014;-0.680;2023-12-04T01:45:00;99160;;;7.85;87.80
57250;BME280;43102;52.014;-0.680;2023-12-04T01:46:00;99156;;;7.88;87.78
57250;BME280;43102;52.014;-0.680;2023-12-04T01:47:00;99156;;;7.88;87.78
57250;BME280;43102;52.014;-0.680;2023-12-04T01:48:00;99156;;;7.88;87.78
57250;BME280;43102;52.014;-0.680;2023-12-04T01:49:00;99156;;;7.88;87.78
57250;BME280;43102;52.014;-0.680;2023-12-04T01:50:00;99156;;;7.88;87.78
57250;BME280;43102;52.014;-0.680;2023-12-04T01:51:00;99140;;;7.82;87.50
57250;BME280;43102;52.014;-0.680;2023-12-04T01:52:00;99140;;;7.82;87.50
57250;BME280;43102;52.014;-0.680;2023-12-04T01:53:00;99140;;;7.82;87.50
57250;BME280;43102;52.014;-0.680;2023-12-04T01:54:00;99140;;;7.82;87.50
57250;BME280;43102;52.014;-0.680;2023-12-04T01:55:00;99140;;;7.82;87.50
57250;BME280;43102;52.014;-0.680;2023-12-04T01:56:00;99127;;;7.81;87.42
57250;BME280;43102;52.014;-0.680;2023-12-04T01:57:01;99127;;;7.81;87.42
57250;BME280;43102;52.014;-0.680;2023-12-04T01:58:00;99127;;;7.81;87.42
57250;BME280;43102;52.014;-0.680;2023-12-04T01:59:00;99127;;;7.81;87.42
57250;BME280;43102;52.014;-0.680;2023-12-04T02:00:00;99127;;;7.81;87.42
57250;BME280;43102;52.014;-0.680;2023-12-04T02:01:00;99123;;;7.77;87.30
57250;BME280;43102;52.014;-0.680;2023-12-04T02:02:00;99123;;;7.77;87.30
57250;BME280;43102;52.014;-0.680;2023-12-04T02:03:00;99123;;;7.77;87.30
57250;BME280;43102;52.014;-0.680;2023-12-04T02:04:00;99123;;;7.77;87.30
57250;BME280;43102;52.014;-0.680;2023-12-04T02:05:00;99123;;;7.77;87.30
57250;BME280;43102;52.014;-0.680;2023-12-04T02:06:00;99113;;;7.73;87.17
57250;BME280;43102;52.014;-0.680;2023-12-04T02:07:00;99113;;;7.73;87.17
57250;BME280;43102;52.014;-0.680;2023-12-04T02:08:00;99113;;;7.73;87.17
57250;BME280;43102;52.014;-0.680;2023-12-04T02:09:00;99113;;;7.73;87.17
57250;BME280;43102;52.014;-0.680;2023-12-04T02:10:00;99113;;;7.73;87.17
57250;BME280;43102;52.014;-0.680;2023-12-04T02:11:00;99111;;;7.72;87.04
57250;BME280;43102;52.014;-0.680;2023-12-04T02:12:00;99111;;;7.72;87.04
57250;BME280;43102;52.014;-0.680;2023-12-04T02:13:00;99111;;;7.72;87.04
57250;BME280;43102;52.014;-0.680;2023-12-04T02:14:00;99111;;;7.72;87.04
57250;BME280;43102;52.014;-0.680;2023-12-04T02:15:00;99111;;;7.72;87.04
57250;BME280;43102;52.014;-0.680;2023-12-04T02:16:02;99104;;;7.68;86.82
57250;BME280;43102;52.014;-0.680;2023-12-04T02:17:00;99104;;;7.68;86.82
57250;BME280;43102;52.014;-0.680;2023-12-04T02:18:00;99104;;;7.68;86.82
57250;BME280;43102;52.014;-0.680;2023-12-04T02:19:00;99104;;;7.68;86.82
57250;BME280;43102;52.014;-0.680;2023-12-04T02:20:00;99104;;;7.68;86.82
57250;BME280;43102;52.014;-0.680;2023-12-04T02:21:00;99103;;;7.67;86.79
57250;BME280;43102;52.014;-0.680;2023-12-04T02:22:00;99103;;;7.67;86.79
57250;BME280;43102;52.014;-0.680;2023-12-04T02:23:00;99103;;;7.67;86.79
57250;BME280;43102;52.014;-0.680;2023-12-04T02:24:00;99103;;;7.67;86.79
57250;BME280;43102;52.014;-0.680;2023-12-04T02:25:00;99103;;;7.67;86.79
57250;BME280;43102;52.014;-0.680;2023-12-04T02:26:03;99095;;;7.64;86.67
57250;BME280;43102;52.014;-0.680;2023-12-04T02:27:04;99095;;;7.64;86.67
57250;BME280;43102;52.014;-0.680;2023-12-04T02:28:01;99095;;;7.64;86.67
57250;BME280;43102;52.014;-0.680;2023-12-04T02:29:01;99095;;;7.64;86.67
57250;BME280;43102;52.014;-0.680;2023-12-04T02:30:00;99095;;;7.64;86.67
57250;BME280;43102;52.014;-0.680;2023-12-04T02:31:01;99084;;;7.55;86.53
57250;BME280;43102;52.014;-0.680;2023-12-04T02:32:00;99084;;;7.55;86.53
57250;BME280;43102;52.014;-0.680;2023-12-04T02:33:00;99084;;;7.55;86.53
57250;BME280;43102;52.014;-0.680;2023-12-04T02:34:00;99084;;;7.55;86.53
57250;BME280;43102;52.014;-0.680;2023-12-04T02:35:01;99084;;;7.55;86.53
57250;BME280;43102;52.014;-0.680;2023-12-04T02:36:00;99077;;;7.56;86.33
57250;BME280;43102;52.014;-0.680;2023-12-04T02:37:00;99077;;;7.56;86.33
57250;BME280;43102;52.014;-0.680;2023-12-04T02:38:00;99077;;;7.56;86.33
57250;BME280;43102;52.014;-0.680;2023-12-04T02:39:00;99077;;;7.56;86.33
57250;BME280;43102;52.014;-0.680;2023-12-04T02:40:00;99077;;;7.56;86.33
57250;BME280;43102;52.014;-0.680;2023-12-04T02:41:00;99075;;;7.55;86.27
57250;BME280;43102;52.014;-0.680;2023-12-04T02:42:00;99075;;;7.55;86.27
57250;BME280;43102;52.014;-0.680;2023-12-04T02:43:00;99075;;;7.55;86.27
57250;BME280;43102;52.014;-0.680;2023-12-04T02:44:00;99075;;;7.55;86.27
57250;BME280;43102;52.014;-0.680;2023-12-04T02:45:00;99075;;;7.55;86.27
57250;BME280;43102;52.014;-0.680;2023-12-04T02:46:00;99070;;;7.52;86.06
57250;BME280;43102;52.014;-0.680;2023-12-04T02:47:00;99070;;;7.52;86.06
57250;BME280;43102;52.014;-0.680;2023-12-04T02:48:00;99070;;;7.52;86.06
57250;BME280;43102;52.014;-0.680;2023-12-04T02:49:00;99070;;;7.52;86.06
57250;BME280;43102;52.014;-0.680;2023-12-04T02:50:00;99070;;;7.52;86.06
57250;BME280;43102;52.014;-0.680;2023-12-04T02:51:00;99060;;;7.46;86.02
57250;BME280;43102;52.014;-0.680;2023-12-04T02:52:00;99060;;;7.46;86.02
57250;BME280;43102;52.014;-0.680;2023-12-04T02:53:00;99060;;;7.46;86.02
57250;BME280;43102;52.014;-0.680;2023-12-04T02:54:00;99060;;;7.46;86.02
57250;BME280;43102;52.014;-0.680;2023-12-04T02:55:00;99060;;;7.46;86.02
57250;BME280;43102;52.014;-0.680;2023-12-04T02:56:00;99057;;;7.49;85.94
57250;BME280;43102;52.014;-0.680;2023-12-04T02:57:00;99057;;;7.49;85.94
57250;BME280;43102;52.014;-0.680;2023-12-04T02:58:00;99057;;;7.49;85.94
57250;BME280;43102;52.014;-0.680;2023-12-04T02:59:00;99057;;;7.49;85.94
57250;BME280;43102;52.014;-0.680;2023-12-04T03:00:00;99057;;;7.49;85.94
57250;BME280;43102;52.014;-0.680;2023-12-04T03:01:00;99050;;;7.42;85.78
57250;BME280;43102;52.014;-0.680;2023-12-04T03:02:00;99050;;;7.42;85.78
57250;BME280;43102;52.014;-0.680;2023-12-04T03:03:00;99050;;;7.42;85.78
57250;BME280;43102;52.014;-0.680;2023-12-04T03:04:00;99050;;;7.42;85.78
57250;BME280;43102;52.014;-0.680;2023-12-04T03:05:00;99050;;;7.42;85.78
57250;BME280;43102;52.014;-0.680;2023-12-04T03:06:00;99041;;;7.41;85.84
57250;BME280;43102;52.014;-0.680;2023-12-04T03:07:00;99041;;;7.41;85.84
57250;BME280;43102;52.014;-0.680;2023-12-04T03:08:00;99041;;;7.41;85.84
57250;BME280;43102;52.014;-0.680;2023-12-04T03:09:00;99041;;;7.41;85.84
57250;BME280;43102;52.014;-0.680;2023-12-04T03:10:00;99041;;;7.41;85.84
57250;BME280;43102;52.014;-0.680;2023-12-04T03:11:01;99033;;;7.39;85.75
57250;BME280;43102;52.014;-0.680;2023-12-04T03:12:00;99033;;;7.39;85.75
57250;BME280;43102;52.014;-0.680;2023-12-04T03:13:00;99033;;;7.39;85.75
57250;BME280;43102;52.014;-0.680;2023-12-04T03:14:00;99033;;;7.39;85.75
57250;BME280;43102;52.014;-0.680;2023-12-04T03:15:00;99033;;;7.39;85.75
57250;BME280;43102;52.014;-0.680;2023-12-04T03:16:00;99025;;;7.35;85.73
57250;BME280;43102;52.014;-0.680;2023-12-04T03:17:00;99025;;;7.35;85.73
57250;BME280;43102;52.014;-0.680;2023-12-04T03:18:00;99025;;;7.35;85.73
57250;BME280;43102;52.014;-0.680;2023-12-04T03:19:00;99025;;;7.35;85.73
57250;BME280;43102;52.014;-0.680;2023-12-04T03:20:00;99025;;;7.35;85.73
57250;BME280;43102;52.014;-0.680;2023-12-04T03:21:00;99013;;;7.34;85.65
57250;BME280;43102;52.014;-0.680;2023-12-04T03:22:01;99013;;;7.34;85.65
57250;BME280;43102;52.014;-0.680;2023-12-04T03:23:00;99013;;;7.34;85.65
57250;BME280;43102;52.014;-0.680;2023-12-04T03:24:00;99013;;;7.34;85.65
57250;BME280;43102;52.014;-0.680;2023-12-04T03:25:00;99013;;;7.34;85.65
57250;BME280;43102;52.014;-0.680;2023-12-04T03:26:00;99005;;;7.34;85.63
57250;BME280;43102;52.014;-0.680;2023-12-04T03:27:00;99005;;;7.34;85.63
57250;BME280;43102;52.014;-0.680;2023-12-04T03:28:00;99005;;;7.34;85.63
57250;BME280;43102;52.014;-0.680;2023-12-04T03:29:00;99005;;;7.34;85.63
57250;BME280;43102;52.014;-0.680;2023-12-04T03:30:00;99005;;;7.34;85.63
57250;BME280;43102;52.014;-0.680;2023-12-04T03:31:00;98992;;;7.28;85.58
57250;BME280;43102;52.014;-0.680;2023-12-04T03:32:00;98992;;;7.28;85.58
57250;BME280;43102;52.014;-0.680;2023-12-04T03:33:00;98992;;;7.28;85.58
57250;BME280;43102;52.014;-0.680;2023-12-04T03:34:00;98992;;;7.28;85.58
57250;BME280;43102;52.014;-0.680;2023-12-04T03:35:00;98992;;;7.28;85.58
57250;BME280;43102;52.014;-0.680;2023-12-04T03:36:00;98978;;;7.21;85.63
57250;BME280;43102;52.014;-0.680;2023-12-04T03:37:00;98978;;;7.21;85.63
57250;BME280;43102;52.014;-0.680;2023-12-04T03:38:00;98978;;;7.21;85.63
57250;BME280;43102;52.014;-0.680;2023-12-04T03:39:00;98978;;;7.21;85.63
57250;BME280;43102;52.014;-0.680;2023-12-04T03:40:00;98978;;;7.21;85.63
57250;BME280;43102;52.014;-0.680;2023-12-04T03:41:00;98971;;;7.23;85.53
57250;BME280;43102;52.014;-0.680;2023-12-04T03:42:00;98971;;;7.23;85.53
57250;BME280;43102;52.014;-0.680;2023-12-04T03:43:00;98971;;;7.23;85.53
57250;BME280;43102;52.014;-0.680;2023-12-04T03:44:00;98971;;;7.23;85.53
57250;BME280;43102;52.014;-0.680;2023-12-04T03:45:00;98971;;;7.23;85.53
57250;BME280;43102;52.014;-0.680;2023-12-04T03:46:00;98959;;;7.14;85.38
57250;BME280;43102;52.014;-0.680;2023-12-04T03:47:00;98959;;;7.14;85.38
57250;BME280;43102;52.014;-0.680;2023-12-04T03:48:00;98959;;;7.14;85.38
57250;BME280;43102;52.014;-0.680;2023-12-04T03:49:00;98959;;;7.14;85.38
57250;BME280;43102;52.014;-0.680;2023-12-04T03:50:00;98959;;;7.14;85.38
57250;BME280;43102;52.014;-0.680;2023-12-04T03:51:00;98949;;;7.12;85.37
57250;BME280;43102;52.014;-0.680;2023-12-04T03:52:00;98949;;;7.12;85.37
57250;BME280;43102;52.014;-0.680;2023-12-04T03:53:00;98949;;;7.12;85.37
57250;BME280;43102;52.014;-0.680;2023-12-04T03:54:00;98949;;;7.12;85.37
57250;BME280;43102;52.014;-0.680;2023-12-04T03:55:00;98949;;;7.12;85.37
57250;BME280;43102;52.014;-0.680;2023-12-04T03:56:00;98945;;;7.09;85.40
57250;BME280;43102;52.014;-0.680;2023-12-04T03:57:00;98945;;;7.09;85.40
57250;BME280;43102;52.014;-0.680;2023-12-04T03:58:00;98945;;;7.09;85.40
57250;BME280;43102;52.014;-0.680;2023-12-04T03:59:00;98945;;;7.09;85.40
57250;BME280;43102;52.014;-0.680;2023-12-04T04:00:00;98945;;;7.09;85.40
57250;BME280;43102;52.014;-0.680;2023-12-04T04:01:00;98936;;;7.01;85.49
57250;BME280;43102;52.014;-0.680;2023-12-04T04:02:00;98936;;;7.01;85.49
57250;BME280;43102;52.014;-0.680;2023-12-04T04:03:00;98936;;;7.01;85.49
57250;BME280;43102;52.014;-0.680;2023-12-04T04:04:00;98936;;;7.01;85.49
57250;BME280;43102;52.014;-0.680;2023-12-04T04:05:00;98936;;;7.01;85.49
57250;BME280;43102;52.014;-0.680;2023-12-04T04:06:00;98925;;;6.97;85.57
57250;BME280;43102;52.014;-0.680;2023-12-04T04:07:00;98925;;;6.97;85.57
57250;BME280;43102;52.014;-0.680;2023-12-04T04:08:00;98925;;;6.97;85.57
57250;BME280;43102;52.014;-0.680;2023-12-04T04:09:00;98925;;;6.97;85.57
57250;BME280;43102;52.014;-0.680;2023-12-04T04:10:00;98925;;;6.97;85.57
57250;BME280;43102;52.014;-0.680;2023-12-04T04:11:00;98916;;;6.99;85.53
57250;BME280;43102;52.014;-0.680;2023-12-04T04:12:00;98916;;;6.99;85.53
57250;BME280;43102;52.014;-0.680;2023-12-04T04:13:00;98916;;;6.99;85.53
57250;BME280;43102;52.014;-0.680;2023-12-04T04:14:00;98916;;;6.99;85.53
57250;BME280;43102;52.014;-0.680;2023-12-04T04:15:00;98916;;;6.99;85.53
57250;BME280;43102;52.014;-0.680;2023-12-04T04:16:00;98911;;;6.95;85.51
57250;BME280;43102;52.014;-0.680;2023-12-04T04:17:00;98911;;;6.95;85.51
57250;BME280;43102;52.014;-0.680;2023-12-04T04:18:00;98911;;;6.95;85.51
57250;BME280;43102;52.014;-0.680;2023-12-04T04:19:00;98911;;;6.95;85.51
57250;BME280;43102;52.014;-0.680;2023-12-04T04:20:00;98911;;;6.95;85.51
57250;BME280;43102;52.014;-0.680;2023-12-04T04:21:00;98903;;;6.86;85.66
57250;BME280;43102;52.014;-0.680;2023-12-04T04:22:00;98903;;;6.86;85.66
57250;BME280;43102;52.014;-0.680;2023-12-04T04:23:00;98903;;;6.86;85.66
57250;BME280;43102;52.014;-0.680;2023-12-04T04:24:00;98903;;;6.86;85.66
57250;BME280;43102;52.014;-0.680;2023-12-04T04:25:00;98903;;;6.86;85.66
57250;BME280;43102;52.014;-0.680;2023-12-04T04:26:00;98890;;;6.90;85.54
57250;BME280;43102;52.014;-0.680;2023-12-04T04:27:00;98890;;;6.90;85.54
57250;BME280;43102;52.014;-0.680;2023-12-04T04:28:00;98890;;;6.90;85.54
57250;BME280;43102;52.014;-0.680;2023-12-04T04:29:00;98890;;;6.90;85.54
57250;BME280;43102;52.014;-0.680;2023-12-04T04:30:00;98890;;;6.90;85.54
57250;BME280;43102;52.014;-0.680;2023-12-04T04:31:00;98889;;;6.85;85.64
57250;BME280;43102;52.014;-0.680;2023-12-04T04:32:00;98889;;;6.85;85.64
57250;BME280;43102;52.014;-0.680;2023-12-04T04:33:00;98889;;;6.85;85.64
57250;BME280;43102;52.014;-0.680;2023-12-04T04:34:00;98889;;;6.85;85.64
57250;BME280;43102;52.014;-0.680;2023-12-04T04:35:00;98889;;;6.85;85.64
57250;BME280;43102;52.014;-0.680;2023-12-04T04:36:00;98880;;;6.85;85.57
57250;BME280;43102;52.014;-0.680;2023-12-04T04:37:00;98880;;;6.85;85.57
57250;BME280;43102;52.014;-0.680;2023-12-04T04:38:00;98880;;;6.85;85.57
57250;BME280;43102;52.014;-0.680;2023-12-04T04:39:00;98880;;;6.85;85.57
57250;BME280;43102;52.014;-0.680;2023-12-04T04:40:00;98880;;;6.85;85.57
57250;BME280;43102;52.014;-0.680;2023-12-04T04:41:00;98873;;;6.89;85.59
57250;BME280;43102;52.014;-0.680;2023-12-04T04:42:00;98873;;;6.89;85.59
57250;BME280;43102;52.014;-0.680;2023-12-04T04:43:00;98873;;;6.89;85.59
57250;BME280;43102;52.014;-0.680;2023-12-04T04:44:00;98873;;;6.89;85.59
57250;BME280;43102;52.014;-0.680;2023-12-04T04:45:00;98873;;;6.89;85.59
57250;BME280;43102;52.014;-0.680;2023-12-04T04:46:00;98869;;;6.86;85.68
57250;BME280;43102;52.014;-0.680;2023-12-04T04:47:00;98869;;;6.86;85.68
57250;BME280;43102;52.014;-0.680;2023-12-04T04:48:00;98869;;;6.86;85.68
57250;BME280;43102;52.014;-0.680;2023-12-04T04:49:00;98869;;;6.86;85.68
57250;BME280;43102;52.014;-0.680;2023-12-04T04:50:00;98869;;;6.86;85.68
57250;BME280;43102;52.014;-0.680;2023-12-04T04:51:00;98854;;;6.85;85.73
57250;BME280;43102;52.014;-0.680;2023-12-04T04:52:00;98854;;;6.85;85.73
57250;BME280;43102;52.014;-0.680;2023-12-04T04:53:00;98854;;;6.85;85.73
57250;BME280;43102;52.014;-0.680;2023-12-04T04:54:00;98854;;;6.85;85.73
57250;BME280;43102;52.014;-0.680;2023-12-04T04:55:00;98854;;;6.85;85.73
57250;BME280;43102;52.014;-0.680;2023-12-04T04:56:00;98845;;;6.82;85.87
57250;BME280;43102;52.014;-0.680;2023-12-04T04:57:00;98845;;;6.82;85.87
57250;BME280;43102;52.014;-0.680;2023-12-04T04:58:00;98845;;;6.82;85.87
57250;BME280;43102;52.014;-0.680;2023-12-04T04:59:00;98845;;;6.82;85.87
57250;BME280;43102;52.014;-0.680;2023-12-04T05:00:00;98845;;;6.82;85.87
57250;BME280;43102;52.014;-0.680;2023-12-04T05:01:00;98839;;;6.80;85.96
57250;BME280;43102;52.014;-0.680;2023-12-04T05:02:00;98839;;;6.80;85.96
57250;BME280;43102;52.014;-0.680;2023-12-04T05:03:00;98839;;;6.80;85.96
57250;BME280;43102;52.014;-0.680;2023-12-04T05:04:00;98839;;;6.80;85.96
57250;BME280;43102;52.014;-0.680;2023-12-04T05:05:02;98839;;;6.80;85.96
57250;BME280;43102;52.014;-0.680;2023-12-04T05:06:00;98830;;;6.84;85.88
57250;BME280;43102;52.014;-0.680;2023-12-04T05:07:00;98830;;;6.84;85.88
57250;BME280;43102;52.014;-0.680;2023-12-04T05:08:00;98830;;;6.84;85.88
57250;BME280;43102;52.014;-0.680;2023-12-04T05:09:00;98830;;;6.84;85.88
57250;BME280;43102;52.014;-0.680;2023-12-04T05:10:00;98830;;;6.84;85.88
57250;BME280;43102;52.014;-0.680;2023-12-04T05:11:00;98823;;;6.87;85.84
57250;BME280;43102;52.014;-0.680;2023-12-04T05:12:00;98823;;;6.87;85.84
57250;BME280;43102;52.014;-0.680;2023-12-04T05:13:00;98823;;;6.87;85.84
57250;BME280;43102;52.014;-0.680;2023-12-04T05:14:00;98823;;;6.87;85.84
57250;BME280;43102;52.014;-0.680;2023-12-04T05:15:00;98823;;;6.87;85.84
57250;BME280;43102;52.014;-0.680;2023-12-04T05:16:00;98826;;;6.88;85.85
57250;BME280;43102;52.014;-0.680;2023-12-04T05:17:00;98826;;;6.88;85.85
57250;BME280;43102;52.014;-0.680;2023-12-04T05:18:00;98826;;;6.88;85.85
57250;BME280;43102;52.014;-0.680;2023-12-04T05:19:00;98826;;;6.88;85.85
57250;BME280;43102;52.014;-0.680;2023-12-04T05:20:00;98826;;;6.88;85.85
57250;BME280;43102;52.014;-0.680;2023-12-04T05:21:00;98818;;;6.89;85.85
57250;BME280;43102;52.014;-0.680;2023-12-04T05:22:00;98818;;;6.89;85.85
57250;BME280;43102;52.014;-0.680;2023-12-04T05:23:00;98818;;;6.89;85.85
57250;BME280;43102;52.014;-0.680;2023-12-04T05:24:00;98818;;;6.89;85.85
57250;BME280;43102;52.014;-0.680;2023-12-04T05:25:00;98818;;;6.89;85.85
57250;BME280;43102;52.014;-0.680;2023-12-04T05:26:00;98817;;;6.87;86.01
57250;BME280;43102;52.014;-0.680;2023-12-04T05:27:00;98817;;;6.87;86.01
57250;BME280;43102;52.014;-0.680;2023-12-04T05:28:00;98817;;;6.87;86.01
57250;BME280;43102;52.014;-0.680;2023-12-04T05:29:00;98817;;;6.87;86.01
57250;BME280;43102;52.014;-0.680;2023-12-04T05:30:00;98817;;;6.87;86.01